createdAt,value
2023-01-31T06:48:24.005Z,500.00
2023-01-31T06:49:24.045Z,500.00
2023-01-31T06:50:24.148Z,500.00
2023-01-31T06:51:24.012Z,500.00
2023-01-31T06:52:24.074Z,500.00
2023-01-31T06:53:24.049Z,500.00
2023-01-31T06:54:24.046Z,400.00
2023-01-31T06:55:24.137Z,400.00
2023-01-31T06:56:24.049Z,400.00
2023-01-31T06:57:24.070Z,400.00
2023-01-31T06:58:24.092Z,400.00
2023-01-31T06:59:24.090Z,400.00
2023-01-31T07:00:24.098Z,400.00
2023-01-31T07:01:24.103Z,400.00
2023-01-31T07:02:24.120Z,400.00
2023-01-31T07:03:24.099Z,400.00
2023-01-31T07:04:24.196Z,400.00
2023-01-31T07:05:24.109Z,400.00
2023-01-31T07:06:24.128Z,400.00
2023-01-31T07:07:24.122Z,400.00
2023-01-31T07:08:24.141Z,400.00
2023-01-31T07:09:24.137Z,400.00
2023-01-31T07:10:24.146Z,400.00
2023-01-31T07:11:24.181Z,400.00
2023-01-31T07:12:24.154Z,400.00
2023-01-31T07:13:24.145Z,400.00
2023-01-31T07:14:24.152Z,400.00
2023-01-31T07:15:24.146Z,400.00
2023-01-31T07:16:24.223Z,400.00
2023-01-31T07:17:24.152Z,400.00
2023-01-31T07:18:24.153Z,400.00
2023-01-31T07:19:24.166Z,400.00
2023-01-31T07:20:24.159Z,400.00
2023-01-31T07:21:24.167Z,400.00
2023-01-31T07:22:24.149Z,400.00
2023-01-31T07:23:24.156Z,400.00
2023-01-31T07:24:24.159Z,400.00
2023-01-31T07:25:24.163Z,400.00
2023-01-31T07:26:24.208Z,400.00
2023-01-31T07:27:24.165Z,400.00
2023-01-31T07:28:24.165Z,400.00
2023-01-31T07:55:24.190Z,509.00
2023-01-31T07:56:24.145Z,512.00
2023-01-31T07:57:24.153Z,510.00
2023-01-31T07:58:24.182Z,512.00
2023-01-31T07:59:24.157Z,508.00
2023-01-31T08:00:24.156Z,514.00
2023-01-31T08:01:24.195Z,516.00
2023-01-31T08:02:24.146Z,513.00
2023-01-31T08:03:24.127Z,516.00
2023-01-31T08:04:24.141Z,519.00
2023-01-31T08:05:24.195Z,517.00
2023-01-31T08:06:24.133Z,520.00
2023-01-31T08:07:26.280Z,523.00
2023-01-31T08:08:24.133Z,523.00
2023-01-31T08:09:24.169Z,525.00
2023-01-31T08:10:24.165Z,524.00
2023-01-31T08:11:24.110Z,525.00
2023-01-31T08:12:24.108Z,524.00
2023-01-31T08:13:24.101Z,525.00
2023-01-31T08:14:24.103Z,527.00
2023-01-31T08:15:24.104Z,530.00
2023-01-31T08:16:24.101Z,535.00
2023-01-31T08:17:24.164Z,537.00
2023-01-31T08:18:24.082Z,537.00
2023-01-31T08:19:24.134Z,537.00
2023-01-31T08:20:24.081Z,538.00
2023-01-31T08:21:24.082Z,540.00
2023-01-31T08:22:24.083Z,543.00
2023-01-31T08:23:24.076Z,545.00
2023-01-31T08:24:24.067Z,539.00
2023-01-31T08:25:24.342Z,540.00
2023-01-31T08:26:24.110Z,543.00
2023-01-31T08:27:24.052Z,539.00
2023-01-31T08:28:24.059Z,542.00
2023-01-31T08:29:24.061Z,537.00
2023-01-31T08:30:24.102Z,538.00
2023-01-31T08:31:24.179Z,538.00
2023-01-31T08:32:24.050Z,539.00
2023-01-31T08:33:24.031Z,539.00
2023-01-31T08:34:24.084Z,540.00
2023-01-31T08:35:24.075Z,547.00
2023-01-31T08:36:24.037Z,549.00
2023-01-31T08:37:24.040Z,556.00
2023-01-31T08:38:24.037Z,565.00
2023-01-31T08:39:24.047Z,585.00
2023-01-31T08:40:24.035Z,594.00
2023-01-31T08:41:24.021Z,586.00
2023-01-31T08:42:24.014Z,583.00
2023-01-31T08:48:23.983Z,563.00
2023-01-31T08:50:27.960Z,564.00
2023-01-31T08:51:23.953Z,564.00
2023-01-31T08:52:23.963Z,564.00
2023-01-31T08:53:23.935Z,555.00
2023-01-31T08:54:23.930Z,559.00
2023-01-31T08:55:23.930Z,550.00
2023-01-31T08:56:23.921Z,550.00
2023-01-31T08:57:23.914Z,549.00
2023-01-31T08:58:23.902Z,539.00
2023-01-31T08:59:23.903Z,539.00
2023-01-31T09:00:23.943Z,544.00
2023-01-31T09:01:23.904Z,540.00
2023-01-31T09:02:23.933Z,536.00
2023-01-31T09:03:23.878Z,539.00
2023-01-31T09:04:23.851Z,532.00
2023-01-31T09:05:23.849Z,539.00
2023-01-31T09:06:23.859Z,537.00
2023-01-31T09:07:23.897Z,534.00
2023-01-31T09:08:23.826Z,522.00
2023-01-31T09:09:23.824Z,524.00
2023-01-31T09:10:23.828Z,530.00
2023-01-31T09:11:23.838Z,532.00
2023-01-31T09:12:23.800Z,530.00
2023-01-31T09:13:23.796Z,541.00
2023-01-31T09:14:23.801Z,552.00
2023-01-31T09:15:24.130Z,552.00
2023-01-31T09:16:23.785Z,555.00
2023-01-31T11:13:23.780Z,754.00
2023-01-31T11:14:23.868Z,842.00
2023-01-31T11:15:23.914Z,856.00
2023-01-31T11:16:24.028Z,826.00
2023-01-31T11:17:24.032Z,868.00
2023-01-31T11:18:24.092Z,995.00
2023-01-31T11:19:24.159Z,1037.00
2023-01-31T11:20:24.482Z,1063.00
2023-01-31T11:21:24.313Z,1071.00
2023-01-31T11:22:24.340Z,1026.00
2023-01-31T11:23:24.404Z,1109.00
2023-01-31T11:24:24.460Z,1130.00
2023-01-31T11:25:24.514Z,1114.00
2023-01-31T11:26:24.633Z,1157.00
2023-01-31T11:27:24.576Z,1070.00
2023-01-31T11:28:24.596Z,1088.00
2023-01-31T11:29:24.590Z,1041.00
2023-01-31T11:30:24.714Z,1097.00
2023-01-31T11:31:24.601Z,1066.00
2023-01-31T11:32:24.589Z,1151.00
2023-01-31T11:33:24.587Z,1226.00
2023-01-31T11:34:24.622Z,1204.00
2023-01-31T11:35:24.600Z,1071.00
2023-01-31T11:36:24.592Z,1144.00
2023-01-31T11:37:24.657Z,1200.00
2023-01-31T11:38:24.595Z,1248.00
2023-01-31T11:39:24.601Z,1313.00
2023-01-31T11:40:24.603Z,1340.00
2023-01-31T11:41:24.592Z,1270.00
2023-01-31T11:42:24.631Z,1240.00
2023-01-31T11:43:24.573Z,1264.00
2023-01-31T11:44:24.576Z,1269.00
2023-01-31T11:45:24.588Z,1245.00
2023-01-31T11:46:24.629Z,1182.00
2023-01-31T11:47:24.554Z,1237.00
2023-01-31T11:48:24.550Z,1327.00
2023-01-31T11:49:24.623Z,1235.00
2023-01-31T11:50:27.437Z,1220.00
2023-01-31T11:51:24.553Z,1236.00
2023-01-31T11:52:24.557Z,1079.00
2023-01-31T11:53:24.531Z,1190.00
2023-01-31T11:54:24.530Z,1144.00
2023-01-31T11:55:24.530Z,1120.00
2023-01-31T11:56:24.514Z,1205.00
2023-01-31T11:57:24.495Z,1118.00
2023-01-31T11:58:24.494Z,1220.00
2023-01-31T11:59:24.520Z,1146.00
2023-01-31T12:00:24.474Z,1261.00
2023-01-31T12:01:24.448Z,1276.00
2023-01-31T12:02:24.457Z,1246.00
2023-01-31T12:03:24.446Z,1219.00
2023-01-31T12:04:24.546Z,1163.00
2023-01-31T12:05:24.442Z,1103.00
2023-01-31T12:06:24.557Z,1083.00
2023-01-31T12:07:24.370Z,1113.00
2023-01-31T12:08:24.374Z,1215.00
2023-01-31T12:09:24.363Z,1181.00
2023-01-31T12:10:24.346Z,1180.00
2023-01-31T12:11:24.328Z,1217.00
2023-01-31T12:12:24.332Z,1250.00
2023-01-31T12:13:24.306Z,1275.00
2023-01-31T12:14:24.284Z,1103.00
2023-01-31T12:15:24.281Z,962.00
2023-01-31T12:16:24.292Z,966.00
2023-01-31T12:17:24.224Z,1526.00
2023-01-31T12:18:24.999Z,1549.00
2023-01-31T12:19:24.190Z,1587.00
2023-01-31T12:20:28.962Z,1653.00
2023-01-31T12:21:25.148Z,1654.00
2023-01-31T12:22:24.142Z,1653.00
2023-01-31T12:23:24.142Z,1575.00
2023-01-31T12:24:24.139Z,1538.00
2023-01-31T12:25:24.099Z,1609.00
2023-01-31T12:26:24.112Z,1615.00
2023-01-31T12:27:24.100Z,1639.00
2023-01-31T12:28:24.066Z,1638.00
2023-01-31T12:29:24.148Z,1620.00
2023-01-31T12:30:24.084Z,1657.00
2023-01-31T12:31:24.073Z,1666.00
2023-01-31T12:32:24.030Z,1660.00
2023-01-31T12:33:24.004Z,1664.00
2023-01-31T12:34:23.992Z,1670.00
2023-01-31T12:35:24.231Z,1675.00
2023-01-31T12:36:23.971Z,1656.00
2023-01-31T12:37:23.957Z,1627.00
2023-01-31T12:38:23.956Z,1554.00
2023-01-31T12:39:23.923Z,1544.00
2023-01-31T12:40:25.900Z,1556.00
2023-01-31T12:41:24.070Z,1478.00
2023-01-31T12:42:24.069Z,1480.00
2023-01-31T12:43:24.041Z,1414.00
2023-01-31T12:44:24.036Z,1436.00
2023-01-31T12:45:24.016Z,1437.00
2023-01-31T12:46:24.086Z,1438.00
2023-01-31T12:47:23.988Z,1352.00
2023-01-31T12:48:23.979Z,1371.00
2023-01-31T12:49:23.976Z,1348.00
2023-01-31T12:50:23.986Z,1455.00
2023-01-31T12:51:23.951Z,1471.00
2023-01-31T12:52:23.943Z,1435.00
2023-01-31T12:53:23.916Z,1448.00
2023-01-31T12:54:23.920Z,1400.00
2023-01-31T12:55:23.966Z,1440.00
2023-01-31T12:56:23.899Z,1437.00
2023-01-31T12:57:23.879Z,1471.00
2023-01-31T12:58:23.879Z,1493.00
2023-01-31T12:59:23.860Z,1493.00
2023-01-31T13:00:23.866Z,1471.00
2023-01-31T13:01:23.931Z,1429.00
2023-01-31T13:02:23.880Z,1417.00
2023-01-31T13:03:23.853Z,1411.00
2023-01-31T13:04:23.849Z,1366.00
2023-01-31T13:05:26.411Z,1352.00
2023-01-31T13:06:23.834Z,1355.00
2023-01-31T13:07:23.832Z,1341.00
2023-01-31T13:08:23.836Z,1353.00
2023-01-31T13:09:23.810Z,1362.00
2023-01-31T13:10:23.808Z,1390.00
2023-01-31T13:11:23.800Z,1363.00
2023-01-31T13:12:23.789Z,1415.00
2023-01-31T13:13:23.783Z,1449.00
2023-01-31T13:14:23.780Z,1464.00
2023-01-31T13:15:23.778Z,1447.00
2023-01-31T13:16:23.786Z,1459.00
2023-01-31T13:17:23.764Z,1462.00
2023-01-31T13:18:23.771Z,1433.00
2023-01-31T13:19:23.771Z,1422.00
2023-01-31T13:20:23.754Z,1428.00
2023-01-31T13:21:23.757Z,1431.00
2023-01-31T13:22:23.762Z,1451.00
2023-01-31T13:23:23.743Z,1434.00
2023-01-31T13:24:23.742Z,1350.00
2023-01-31T13:25:23.956Z,1384.00
2023-01-31T13:26:23.780Z,1414.00
2023-01-31T13:27:23.731Z,1424.00
2023-01-31T13:28:23.734Z,1442.00
2023-01-31T13:30:23.763Z,1440.00
2023-01-31T13:31:23.784Z,1444.00
2023-01-31T13:32:23.721Z,1445.00
2023-01-31T13:33:23.703Z,1447.00
2023-01-31T13:35:23.684Z,1439.00
2023-01-31T13:36:23.665Z,1434.00
2023-01-31T13:37:23.659Z,1457.00
2023-01-31T13:38:23.650Z,1434.00
2023-01-31T13:39:23.651Z,1445.00
2023-01-31T13:40:23.648Z,1442.00
2023-01-31T13:41:23.636Z,1427.00
2023-01-31T13:42:23.631Z,1418.00
2023-01-31T13:43:23.620Z,1417.00
2023-01-31T13:44:23.618Z,1370.00
2023-01-31T13:45:23.623Z,1301.00
2023-01-31T13:46:23.634Z,1365.00
2023-01-31T13:47:23.597Z,1363.00
2023-01-31T13:48:23.593Z,1318.00
2023-01-31T13:49:23.589Z,1350.00
2023-01-31T13:50:23.595Z,1330.00
2023-01-31T13:51:23.599Z,1361.00
2023-01-31T13:52:23.599Z,1297.00
2023-01-31T13:53:23.604Z,1298.00
2023-01-31T13:54:23.613Z,1324.00
2023-01-31T13:55:23.601Z,1326.00
2023-01-31T13:56:23.601Z,1291.00
2023-01-31T13:57:23.603Z,1306.00
2023-01-31T13:58:23.594Z,1294.00
2023-01-31T13:59:23.576Z,1253.00
2023-01-31T14:00:23.588Z,1254.00
2023-01-31T14:01:23.646Z,1270.00
2023-01-31T14:02:23.566Z,1308.00
2023-01-31T14:03:23.564Z,1294.00
2023-01-31T14:04:23.636Z,1251.00
2023-01-31T14:05:23.556Z,1267.00
2023-01-31T14:06:23.555Z,1224.00
2023-01-31T14:07:23.560Z,1224.00
2023-01-31T14:08:23.561Z,1238.00
2023-01-31T14:09:23.550Z,1212.00
2023-01-31T14:10:23.549Z,1191.00
2023-01-31T14:11:23.540Z,1222.00
2023-01-31T14:12:23.548Z,1196.00
2023-01-31T14:13:23.543Z,1218.00
2023-01-31T14:14:23.588Z,1201.00
2023-01-31T14:15:23.539Z,1173.00
2023-01-31T14:16:23.527Z,1162.00
2023-01-31T14:17:23.565Z,1165.00
2023-01-31T14:18:23.510Z,1187.00
2023-01-31T14:19:23.526Z,1187.00
2023-01-31T14:20:23.533Z,1215.00
2023-01-31T14:21:23.511Z,1206.00
2023-01-31T14:22:23.527Z,1155.00
2023-01-31T14:23:23.510Z,1180.00
2023-01-31T14:24:23.508Z,1095.00
2023-01-31T14:25:23.539Z,1147.00
2023-01-31T14:26:23.515Z,1089.00
2023-01-31T14:27:23.484Z,1129.00
2023-01-31T14:28:25.608Z,1123.00
2023-01-31T14:29:23.472Z,1128.00
2023-01-31T14:30:23.473Z,1036.00
2023-01-31T14:31:23.492Z,1087.00
2023-01-31T14:32:23.452Z,1035.00
2023-01-31T14:33:23.455Z,1020.00
2023-01-31T14:34:23.423Z,1020.00
2023-01-31T14:35:23.698Z,1009.00
2023-01-31T14:36:23.437Z,991.00
2023-01-31T14:37:23.400Z,1064.00
2023-01-31T14:38:23.401Z,1123.00
2023-01-31T14:39:23.403Z,1035.00
2023-01-31T14:40:23.391Z,1111.00
2023-01-31T14:41:23.373Z,966.00
2023-01-31T14:42:23.374Z,1032.00
2023-01-31T14:43:23.362Z,1075.00
2023-01-31T14:44:23.370Z,1089.00
2023-01-31T14:45:23.500Z,1064.00
2023-01-31T14:46:23.336Z,1073.00
2023-01-31T14:47:25.892Z,1109.00
2023-01-31T14:48:24.736Z,1086.00
2023-01-31T14:49:23.311Z,1087.00
2023-01-31T14:50:23.520Z,1085.00
2023-01-31T14:51:23.311Z,1095.00
2023-01-31T14:52:23.311Z,1103.00
2023-01-31T14:53:23.313Z,1055.00
2023-01-31T14:54:23.294Z,1040.00
2023-01-31T14:55:23.601Z,1013.00
2023-01-31T14:56:23.297Z,1036.00
2023-01-31T14:57:23.287Z,1041.00
2023-01-31T14:58:23.304Z,1047.00
2023-01-31T14:59:23.289Z,1057.00
2023-01-31T15:00:23.301Z,1007.00
2023-01-31T15:01:23.311Z,1011.00
2023-01-31T15:02:23.418Z,976.00
2023-01-31T15:03:23.346Z,1017.00
2023-01-31T15:04:23.297Z,1061.00
2023-01-31T15:05:23.720Z,1035.00
2023-01-31T15:06:23.315Z,1056.00
2023-01-31T15:07:23.277Z,1015.00
2023-01-31T15:08:23.300Z,1000.00
2023-01-31T15:09:23.281Z,1022.00
2023-01-31T15:10:23.277Z,997.00
2023-01-31T15:11:40.258Z,1048.00
2023-01-31T15:12:24.283Z,1049.00
2023-01-31T15:13:23.284Z,1000.00
2023-01-31T15:14:33.748Z,1033.00
2023-01-31T15:15:24.269Z,1048.00
2023-01-31T15:16:23.286Z,1051.00
2023-01-31T15:17:35.591Z,1053.00
2023-01-31T15:18:24.280Z,1048.00
2023-01-31T15:19:23.267Z,955.00
2023-01-31T15:20:23.262Z,1042.00
2023-01-31T15:21:23.267Z,951.00
2023-01-31T15:22:23.229Z,1022.00
2023-01-31T15:23:23.230Z,1036.00
2023-01-31T15:24:23.236Z,1031.00
2023-01-31T15:25:23.605Z,1068.00
2023-01-31T15:26:23.262Z,1051.00
2023-01-31T15:27:23.228Z,1023.00
2023-01-31T15:28:23.248Z,1022.00
2023-01-31T15:29:23.236Z,1021.00
2023-01-31T15:30:23.245Z,979.00
2023-01-31T15:31:23.364Z,972.00
2023-01-31T15:32:23.269Z,977.00
2023-01-31T15:33:23.261Z,975.00
2023-01-31T15:34:23.286Z,1000.00
2023-01-31T15:35:23.533Z,969.00
2023-01-31T15:36:23.279Z,951.00
2023-01-31T15:37:23.294Z,978.00
2023-01-31T15:38:23.292Z,982.00
2023-01-31T15:39:23.328Z,1001.00
2023-01-31T15:40:23.316Z,948.00
2023-01-31T15:41:23.332Z,994.00
2023-01-31T15:42:23.319Z,992.00
2023-01-31T15:43:23.357Z,986.00
2023-01-31T15:44:23.328Z,929.00
2023-01-31T15:45:23.852Z,901.00
2023-01-31T15:46:23.387Z,957.00
2023-01-31T15:47:23.339Z,983.00
2023-01-31T15:48:23.367Z,963.00
2023-01-31T15:49:38.098Z,993.00
2023-01-31T15:50:24.362Z,994.00
2023-01-31T15:51:23.365Z,980.00
2023-01-31T15:52:23.407Z,995.00
2023-01-31T15:53:23.373Z,971.00
2023-01-31T15:54:23.372Z,974.00
2023-01-31T15:55:23.546Z,1032.00
2023-01-31T15:56:23.379Z,1023.00
2023-01-31T15:57:23.379Z,1063.00
2023-01-31T15:58:23.387Z,1046.00
2023-01-31T15:59:23.390Z,1033.00
2023-01-31T16:00:23.398Z,1065.00
2023-01-31T16:01:23.444Z,1025.00
2023-01-31T16:02:23.417Z,1014.00
2023-01-31T16:03:23.416Z,1031.00
2023-01-31T16:04:23.419Z,995.00
2023-01-31T16:05:23.819Z,1005.00
2023-01-31T16:06:23.439Z,996.00
2023-01-31T16:07:23.429Z,973.00
2023-01-31T16:08:23.428Z,1015.00
2023-01-31T16:09:23.441Z,1007.00
2023-01-31T16:10:23.432Z,1041.00
2023-01-31T16:11:23.465Z,977.00
2023-01-31T16:12:23.440Z,1034.00
2023-01-31T16:13:23.455Z,1015.00
2023-01-31T16:14:23.413Z,1041.00
2023-01-31T16:15:23.600Z,1070.00
2023-01-31T16:16:23.413Z,1043.00
2023-01-31T16:17:24.794Z,1078.00
2023-01-31T16:18:23.419Z,1071.00
2023-01-31T16:19:23.414Z,1049.00
2023-01-31T16:20:23.409Z,1079.00
2023-01-31T16:21:23.416Z,1110.00
2023-01-31T16:22:23.412Z,1111.00
2023-01-31T16:23:23.411Z,1134.00
2023-01-31T16:24:23.429Z,1155.00
2023-01-31T16:25:23.827Z,1131.00
2023-01-31T16:26:23.439Z,1109.00
2023-01-31T16:27:23.403Z,1154.00
2023-01-31T16:28:23.430Z,1141.00
2023-01-31T16:29:23.433Z,1103.00
2023-01-31T16:30:23.406Z,1136.00
2023-01-31T16:31:23.453Z,1119.00
2023-01-31T16:32:23.406Z,1147.00
2023-01-31T16:33:23.398Z,1154.00
2023-01-31T16:34:23.401Z,1120.00
2023-01-31T16:35:23.769Z,1163.00
2023-01-31T16:36:23.378Z,1173.00
2023-01-31T16:37:23.378Z,1152.00
2023-01-31T16:38:23.374Z,1187.00
2023-01-31T16:39:23.388Z,1187.00
2023-01-31T16:40:23.372Z,1125.00
2023-01-31T16:41:23.377Z,1165.00
2023-01-31T16:42:23.360Z,1189.00
2023-01-31T16:43:23.374Z,1196.00
2023-01-31T16:44:23.363Z,1166.00
2023-01-31T16:45:23.622Z,1150.00
2023-01-31T16:46:23.357Z,1172.00
2023-01-31T16:47:23.352Z,1151.00
2023-01-31T16:48:23.352Z,1182.00
2023-01-31T16:49:23.356Z,1094.00
2023-01-31T16:50:36.585Z,1122.00
2023-01-31T16:51:24.346Z,1123.00
2023-01-31T16:52:23.340Z,1128.00
2023-01-31T16:53:23.351Z,1141.00
2023-01-31T16:54:23.372Z,1161.00
2023-01-31T16:55:23.565Z,1188.00
2023-01-31T16:56:23.334Z,1137.00
2023-01-31T16:57:23.376Z,1115.00
2023-01-31T16:58:23.340Z,1087.00
2023-01-31T16:59:23.335Z,1145.00
2023-01-31T17:00:23.572Z,1137.00
2023-01-31T17:01:23.396Z,1161.00
2023-01-31T17:02:23.354Z,1185.00
2023-01-31T17:03:23.332Z,1190.00
2023-01-31T17:04:23.330Z,1182.00
2023-01-31T17:05:23.550Z,1201.00
2023-01-31T17:06:23.337Z,1200.00
2023-01-31T17:07:23.332Z,1131.00
2023-01-31T17:08:23.333Z,1138.00
2023-01-31T17:09:23.318Z,1155.00
2023-01-31T17:10:23.491Z,1163.00
2023-01-31T17:11:39.644Z,1188.00
2023-01-31T17:12:24.318Z,1182.00
2023-01-31T17:13:23.305Z,1167.00
2023-01-31T17:14:23.319Z,1135.00
2023-01-31T17:15:23.530Z,1165.00
2023-01-31T17:16:23.326Z,1170.00
2023-01-31T17:17:23.286Z,1166.00
2023-01-31T17:18:23.291Z,1149.00
2023-01-31T17:19:23.467Z,1169.00
2023-01-31T17:20:23.286Z,1180.00
2023-01-31T17:21:23.312Z,1165.00
2023-01-31T17:22:23.337Z,1196.00
2023-01-31T17:23:23.283Z,1189.00
2023-01-31T17:24:23.287Z,1191.00
2023-01-31T17:25:23.551Z,1204.00
2023-01-31T17:26:23.318Z,1176.00
2023-01-31T17:27:23.289Z,1205.00
2023-01-31T17:28:23.277Z,1216.00
2023-01-31T17:29:23.322Z,1226.00
2023-01-31T17:30:23.348Z,1205.00
2023-01-31T17:31:23.306Z,1204.00
2023-01-31T17:32:23.260Z,1216.00
2023-01-31T17:33:23.257Z,1217.00
2023-01-31T17:34:23.262Z,1217.00
2023-01-31T17:35:23.540Z,1203.00
2023-01-31T17:36:23.253Z,1205.00
2023-01-31T17:37:30.324Z,1186.00
2023-01-31T17:38:24.252Z,1213.00
2023-01-31T17:39:23.242Z,1207.00
2023-01-31T17:40:23.322Z,1214.00
2023-01-31T17:41:23.283Z,1195.00
2023-01-31T17:42:23.229Z,1207.00
2023-01-31T17:43:23.233Z,1195.00
2023-01-31T17:47:23.237Z,1205.00
2023-01-31T18:12:23.272Z,1264.00
2023-01-31T18:13:23.264Z,1267.00
2023-01-31T18:14:23.258Z,1267.00
2023-01-31T18:15:23.427Z,1266.00
2023-01-31T18:16:23.352Z,1243.00
2023-01-31T18:17:23.260Z,1253.00
2023-01-31T18:18:23.260Z,1253.00
2023-01-31T18:19:23.272Z,1265.00
2023-01-31T18:20:23.273Z,1268.00
2023-01-31T18:21:23.292Z,1261.00
2023-01-31T18:22:23.274Z,1257.00
2023-01-31T18:23:23.273Z,1259.00
2023-01-31T18:24:23.304Z,1263.00
2023-01-31T18:25:23.769Z,1270.00
2023-01-31T18:26:23.317Z,1272.00
2023-01-31T18:27:23.287Z,1272.00
2023-01-31T18:28:23.303Z,1276.00
2023-01-31T18:29:23.301Z,1272.00
2023-01-31T18:30:23.285Z,1267.00
2023-01-31T18:31:23.521Z,1265.00
2023-01-31T18:32:23.296Z,1268.00
2023-01-31T18:33:23.309Z,1261.00
2023-01-31T18:34:23.310Z,1262.00
2023-01-31T18:35:23.647Z,1262.00
2023-01-31T18:36:23.308Z,1261.00
2023-01-31T18:37:23.300Z,1260.00
2023-01-31T18:38:23.310Z,1265.00
2023-01-31T18:39:23.315Z,1268.00
2023-01-31T18:40:23.312Z,1256.00
2023-01-31T18:41:23.335Z,1258.00
2023-01-31T18:42:23.320Z,1263.00
2023-01-31T18:43:23.318Z,1267.00
2023-01-31T18:44:23.320Z,1260.00
2023-01-31T18:45:23.843Z,1265.00
2023-01-31T18:46:23.320Z,1265.00
2023-01-31T18:47:23.325Z,1261.00
2023-01-31T18:48:23.327Z,1257.00
2023-01-31T18:49:23.342Z,1256.00
2023-01-31T18:50:23.333Z,1255.00
2023-01-31T18:51:23.356Z,1251.00
2023-01-31T18:52:23.373Z,1247.00
2023-01-31T18:53:23.355Z,1255.00
2023-01-31T18:54:23.348Z,1253.00
2023-01-31T18:55:23.690Z,1252.00
2023-01-31T18:56:23.372Z,1249.00
2023-01-31T18:57:23.360Z,1237.00
2023-01-31T18:58:23.369Z,1235.00
2023-01-31T18:59:23.381Z,1234.00
2023-01-31T19:00:23.385Z,1236.00
2023-01-31T19:01:23.390Z,1225.00
2023-01-31T19:02:23.395Z,1241.00
2023-01-31T19:03:23.386Z,1236.00
2023-01-31T19:04:23.402Z,1231.00
2023-01-31T19:05:23.689Z,1247.00
2023-01-31T19:06:23.400Z,1233.00
2023-01-31T19:07:23.402Z,1239.00
2023-01-31T19:08:23.404Z,1235.00
2023-01-31T19:09:23.410Z,1228.00
2023-01-31T19:10:23.422Z,1217.00
2023-01-31T19:11:23.420Z,1223.00
2023-01-31T19:12:23.407Z,1223.00
2023-01-31T19:13:23.407Z,1220.00
2023-01-31T19:14:23.426Z,1218.00
2023-01-31T19:15:23.708Z,1219.00
2023-01-31T19:16:23.538Z,1217.00
2023-01-31T19:17:23.444Z,1213.00
2023-01-31T19:18:23.442Z,1208.00
2023-01-31T19:19:23.458Z,1216.00
2023-01-31T19:20:23.471Z,1201.00
2023-01-31T19:21:23.462Z,1173.00
2023-01-31T19:22:23.463Z,1188.00
2023-01-31T19:23:23.468Z,1197.00
2023-01-31T19:24:23.470Z,1194.00
2023-01-31T19:25:23.715Z,1190.00
2023-01-31T19:26:23.503Z,1203.00
2023-01-31T19:27:23.495Z,1190.00
2023-01-31T19:28:23.487Z,1198.00
2023-01-31T19:29:23.490Z,1201.00
2023-01-31T19:30:23.490Z,1208.00
2023-01-31T19:31:23.583Z,1188.00
2023-01-31T19:32:23.510Z,1200.00
2023-01-31T19:33:23.514Z,1193.00
2023-01-31T19:34:23.520Z,1194.00
2023-01-31T19:35:23.779Z,1206.00
2023-01-31T19:36:23.524Z,1207.00
2023-01-31T19:37:23.535Z,1208.00
2023-01-31T19:38:23.527Z,1201.00
2023-01-31T19:39:23.545Z,1211.00
2023-01-31T19:40:23.540Z,1183.00
2023-01-31T19:41:23.542Z,1194.00
2023-01-31T19:42:23.568Z,1208.00
2023-01-31T19:43:23.556Z,1204.00
2023-01-31T19:44:23.570Z,1200.00
2023-01-31T19:45:23.882Z,1148.00
2023-01-31T19:46:23.588Z,1186.00
2023-01-31T19:47:23.593Z,1204.00
2023-01-31T19:48:23.588Z,1202.00
2023-01-31T19:49:23.614Z,1194.00
2023-01-31T19:50:23.618Z,1178.00
2023-01-31T19:51:23.624Z,1190.00
2023-01-31T19:52:23.629Z,1208.00
2023-01-31T19:53:23.636Z,1189.00
2023-01-31T19:54:23.698Z,1192.00
2023-01-31T19:55:23.948Z,1193.00
2023-01-31T19:56:23.662Z,1196.00
2023-01-31T19:57:23.678Z,1198.00
2023-01-31T19:58:23.675Z,1207.00
2023-01-31T19:59:23.691Z,1210.00
2023-01-31T20:00:23.706Z,1218.00
2023-01-31T20:01:23.826Z,1213.00
2023-01-31T20:02:23.749Z,1184.00
2023-01-31T20:03:23.734Z,1198.00
2023-01-31T20:04:23.748Z,1202.00
2023-01-31T20:05:23.749Z,1203.00
2023-01-31T20:06:23.760Z,1175.00
2023-01-31T20:07:23.787Z,1183.00
2023-01-31T20:08:23.784Z,1194.00
2023-01-31T20:09:23.788Z,1205.00
2023-01-31T20:10:24.040Z,1200.00
2023-01-31T20:11:23.803Z,1196.00
2023-01-31T20:12:23.825Z,1205.00
2023-01-31T20:13:23.829Z,1201.00
2023-01-31T20:14:23.835Z,1207.00
2023-01-31T20:15:23.841Z,1202.00
2023-01-31T20:16:23.875Z,1195.00
2023-01-31T20:17:23.875Z,1195.00
2023-01-31T20:18:23.870Z,1195.00
2023-01-31T20:19:23.869Z,1196.00
2023-01-31T20:20:23.873Z,1196.00
2023-01-31T20:21:23.887Z,1195.00
2023-01-31T20:22:23.926Z,1185.00
2023-01-31T20:23:23.903Z,1206.00
2023-01-31T20:24:23.916Z,1196.00
2023-01-31T20:25:23.917Z,1178.00
2023-01-31T20:26:23.949Z,1183.00
2023-01-31T20:27:23.961Z,1197.00
2023-01-31T20:28:23.963Z,1187.00
2023-01-31T20:29:23.952Z,1155.00
2023-01-31T20:30:24.085Z,1167.00
2023-01-31T20:31:24.032Z,1167.00
2023-01-31T20:32:24.006Z,1174.00
2023-01-31T20:33:23.992Z,1174.00
2023-01-31T20:34:23.986Z,1178.00
2023-01-31T20:35:23.997Z,1172.00
2023-01-31T20:36:24.117Z,1174.00
2023-01-31T20:37:24.023Z,1171.00
2023-01-31T20:38:24.027Z,1172.00
2023-01-31T20:39:24.030Z,1178.00
2023-01-31T20:40:24.070Z,1163.00
2023-01-31T20:41:24.049Z,1161.00
2023-01-31T20:42:25.611Z,1159.00
2023-01-31T20:43:24.081Z,1155.00
2023-01-31T20:44:24.095Z,1165.00
2023-01-31T20:45:24.096Z,1163.00
2023-01-31T20:46:24.205Z,1184.00
2023-01-31T20:47:24.118Z,1178.00
2023-01-31T20:48:24.129Z,1167.00
2023-01-31T20:49:24.135Z,1157.00
2023-01-31T20:50:24.191Z,1176.00
2023-01-31T20:51:24.158Z,1181.00
2023-01-31T20:52:24.179Z,1182.00
2023-01-31T20:53:24.187Z,1171.00
2023-01-31T20:54:24.198Z,1174.00
2023-01-31T20:55:24.201Z,1184.00
2023-01-31T20:56:24.212Z,1174.00
2023-01-31T20:57:24.223Z,1151.00
2023-01-31T20:58:24.239Z,1160.00
2023-01-31T20:59:24.247Z,1171.00
2023-01-31T21:00:24.465Z,1167.00
2023-01-31T21:01:24.285Z,1185.00
2023-01-31T21:02:24.352Z,1175.00
2023-01-31T21:03:24.348Z,1180.00
2023-01-31T21:04:24.293Z,1130.00
2023-01-31T21:05:24.305Z,1158.00
2023-01-31T21:06:24.318Z,1168.00
2023-01-31T21:07:24.324Z,1163.00
2023-01-31T21:08:24.343Z,1140.00
2023-01-31T21:09:24.349Z,1137.00
2023-01-31T21:10:24.350Z,1146.00
2023-01-31T21:11:24.369Z,1146.00
2023-01-31T21:12:24.381Z,1140.00
2023-01-31T21:13:24.400Z,1137.00
2023-01-31T21:14:24.400Z,1095.00
2023-01-31T21:15:24.432Z,1124.00
2023-01-31T21:16:24.427Z,1113.00
2023-01-31T21:17:37.813Z,1105.00
2023-01-31T21:18:25.462Z,1106.00
2023-01-31T21:19:24.451Z,1106.00
2023-01-31T21:20:24.476Z,1079.00
2023-01-31T21:21:24.477Z,1070.00
2023-01-31T21:22:24.516Z,1080.00
2023-01-31T21:23:24.532Z,1061.00
2023-01-31T21:24:24.519Z,1064.00
2023-01-31T21:25:24.531Z,1046.00
2023-01-31T21:26:26.745Z,1043.00
2023-01-31T21:27:24.595Z,1044.00
2023-01-31T21:28:24.578Z,1043.00
2023-01-31T21:29:24.568Z,1044.00
2023-01-31T21:30:24.578Z,975.00
2023-01-31T21:31:24.633Z,945.00
2023-01-31T21:32:24.601Z,1000.00
2023-01-31T21:33:24.601Z,1035.00
2023-01-31T21:34:24.612Z,1000.00
2023-01-31T21:35:24.628Z,1033.00
2023-01-31T21:36:24.640Z,1031.00
2023-01-31T21:37:24.642Z,1020.00
2023-01-31T21:38:24.654Z,1029.00
2023-01-31T21:39:24.656Z,1016.00
2023-01-31T21:40:24.673Z,960.00
2023-01-31T21:41:24.681Z,995.00
2023-01-31T21:42:24.686Z,996.00
2023-01-31T21:43:24.710Z,976.00
2023-01-31T21:44:24.722Z,998.00
2023-01-31T21:45:24.721Z,972.00
2023-01-31T21:46:24.788Z,958.00
2023-01-31T21:47:24.770Z,940.00
2023-01-31T21:48:24.778Z,1002.00
2023-01-31T21:49:24.803Z,995.00
2023-01-31T21:50:24.798Z,1003.00
2023-01-31T21:51:24.802Z,1003.00
2023-01-31T21:52:24.816Z,995.00
2023-01-31T21:53:26.387Z,995.00
2023-01-31T21:54:24.844Z,996.00
2023-01-31T21:55:24.850Z,996.00
2023-01-31T21:56:24.876Z,1001.00